Time;durP1;ratioP1;P1;durP2;ratioP2;P2;SDS_P1;SDS_P2;PMS_P1;PMS_P2;Temp;Humidity;BMP_temperature;BMP_pressure;BME280_temperature;BME280_humidity;BME280_pressure;Samples;Min_cycle;Max_cycle;Signal;HPM_P1;HPM_P2
2021/07/25 00:00:56;;;;;;;5.28;3.50;;;26.80;96.70;;;;;;4902558;29;20050;-73
2021/07/25 00:03:26;;;;;;;6.30;3.85;;;26.60;96.70;;;;;;4917715;29;20048;-73
2021/07/25 00:05:54;;;;;;;4.95;3.45;;;26.50;96.70;;;;;;4914057;29;20122;-73
2021/07/25 00:08:22;;;;;;;6.28;3.50;;;26.50;96.70;;;;;;4901877;29;20040;-73
2021/07/25 00:10:50;;;;;;;5.40;3.63;;;26.50;96.70;;;;;;4900505;29;20088;-74
2021/07/25 00:13:19;;;;;;;7.70;3.97;;;26.50;96.70;;;;;;4902038;29;20167;-73
2021/07/25 00:15:47;;;;;;;9.20;3.60;;;26.50;96.70;;;;;;4896224;29;20056;-73
2021/07/25 00:18:35;;;;;;;6.85;3.72;;;26.60;96.70;;;;;;4916723;29;20124;-73
2021/07/25 00:21:04;;;;;;;7.78;4.07;;;26.50;96.70;;;;;;4884515;29;20056;-73
2021/07/25 00:23:32;;;;;;;5.72;3.78;;;26.50;96.70;;;;;;4901637;29;20047;-73
2021/07/25 00:26:00;;;;;;;9.13;3.85;;;26.40;96.70;;;;;;4901788;29;20056;-73
2021/07/25 00:28:35;;;;;;;5.63;3.42;;;26.30;96.70;;;;;;4902370;29;20044;-72
2021/07/25 00:31:05;;;;;;;6.35;4.13;;;26.20;96.70;;;;;;4902879;29;20044;-72
2021/07/25 00:33:36;;;;;;;8.60;3.30;;;26.20;96.70;;;;;;4915322;28;20135;-72
2021/07/25 00:36:06;;;;;;;4.65;3.80;;;26.20;96.70;;;;;;4901468;29;20074;-72
2021/07/25 00:38:34;;;;;;;5.55;3.72;;;26.30;96.70;;;;;;4902105;29;20494;-72
2021/07/25 00:41:09;;;;;;;5.18;3.53;;;26.30;96.70;;;;;;4900946;29;20139;-72
2021/07/25 00:43:38;;;;;;;6.38;3.30;;;26.20;96.70;;;;;;4900035;29;20056;-72
2021/07/25 00:46:07;;;;;;;6.15;3.80;;;26.30;96.70;;;;;;4913779;28;20048;-72
2021/07/25 00:48:37;;;;;;;4.63;3.50;;;26.30;96.70;;;;;;4928178;28;20048;-72
2021/07/25 00:51:05;;;;;;;6.70;3.47;;;26.30;96.70;;;;;;4902882;29;20147;-72
2021/07/25 00:53:35;;;;;;;4.13;3.38;;;26.30;96.70;;;;;;4905608;29;20048;-73
2021/07/25 00:56:04;;;;;;;6.50;3.40;;;26.30;96.70;;;;;;4902256;29;20040;-72
2021/07/25 00:58:37;;;;;;;5.00;3.50;;;26.20;96.70;;;;;;4892835;29;20143;-73
2021/07/25 01:01:06;;;;;;;7.63;3.63;;;26.30;96.70;;;;;;4902262;29;20518;-73
2021/07/25 01:03:50;;;;;;;4.45;3.55;;;26.30;96.70;;;;;;4897599;29;20048;-73
2021/07/25 01:06:27;;;;;;;7.60;3.95;;;26.30;96.70;;;;;;4901955;29;20044;-72
2021/07/25 01:08:59;;;;;;;5.28;3.30;;;26.20;96.70;;;;;;4898140;29;20048;-73
2021/07/25 01:11:32;;;;;;;5.82;3.40;;;26.20;96.70;;;;;;4901820;29;20070;-73
2021/07/25 01:14:03;;;;;;;3.83;3.17;;;26.20;96.70;;;;;;4902386;29;20142;-73
2021/07/25 01:16:32;;;;;;;3.40;2.92;;;26.10;96.70;;;;;;4901932;29;20048;-73
2021/07/25 01:19:01;;;;;;;8.25;3.65;;;26.10;96.70;;;;;;4900407;29;20048;-73
2021/07/25 01:21:31;;;;;;;7.63;3.35;;;26.10;96.70;;;;;;4915792;28;20656;-73
2021/07/25 01:23:59;;;;;;;6.63;3.47;;;26.10;96.70;;;;;;4899657;29;20541;-74
2021/07/25 01:26:29;;;;;;;4.68;3.22;;;26.10;96.70;;;;;;4903842;29;20135;-74
2021/07/25 01:29:01;;;;;;;5.88;3.42;;;26.10;96.70;;;;;;4901440;29;20044;-73
2021/07/25 01:31:33;;;;;;;7.53;3.65;;;26.10;96.70;;;;;;4900267;29;20040;-73
2021/07/25 01:34:39;;;;;;;4.15;3.03;;;26.10;96.70;;;;;;4916493;29;20051;-73
2021/07/25 01:41:16;;;;;;;7.85;4.03;;;26.00;96.70;;;;;;4911097;29;20565;-73
2021/07/25 02:13:04;;;;;;;3.75;3.45;;;25.20;96.70;;;;;;4908275;29;20156;-73
2021/07/25 02:17:03;;;;;;;7.30;3.83;;;25.20;96.70;;;;;;4854840;29;20208;-73
2021/07/25 02:27:51;;;;;;;9.23;4.35;;;25.40;96.70;;;;;;4860804;29;20717;-73
2021/07/25 02:34:28;;;;;;;8.60;3.90;;;25.40;96.70;;;;;;4862805;29;20652;-73
2021/07/25 02:41:03;;;;;;;6.43;3.90;;;25.40;96.70;;;;;;4860578;29;20052;-73
2021/07/25 02:56:06;;;;;;;6.70;3.10;;;25.10;96.70;;;;;;4908637;29;20079;-73
2021/07/25 02:58:36;;;;;;;6.55;3.97;;;25.00;96.70;;;;;;4910566;29;20044;-72
2021/07/25 03:01:10;;;;;;;4.85;3.67;;;25.00;96.70;;;;;;4903199;29;20051;-72
2021/07/25 03:03:40;;;;;;;5.75;4.03;;;25.00;96.70;;;;;;4885020;29;20240;-72
2021/07/25 03:06:09;;;;;;;5.80;3.70;;;25.00;96.70;;;;;;4902274;29;20063;-72
2021/07/25 03:08:38;;;;;;;7.63;3.78;;;25.00;96.70;;;;;;4901644;29;20434;-72
2021/07/25 03:11:09;;;;;;;4.40;3.10;;;24.90;96.70;;;;;;4915315;29;20155;-72
2021/07/25 03:13:39;;;;;;;5.40;3.72;;;25.00;96.70;;;;;;4902779;29;20174;-72
2021/07/25 03:16:09;;;;;;;5.35;3.72;;;24.90;96.70;;;;;;4905549;29;20044;-73
2021/07/25 03:18:38;;;;;;;4.47;3.83;;;24.90;96.70;;;;;;4902380;29;20043;-72
2021/07/25 03:21:06;;;;;;;7.82;3.85;;;24.90;96.70;;;;;;4914875;29;20056;-72
2021/07/25 03:23:36;;;;;;;7.93;3.63;;;25.00;96.70;;;;;;4899159;29;20075;-72
2021/07/25 03:26:04;;;;;;;4.78;4.13;;;25.00;96.70;;;;;;4903418;29;20086;-72
2021/07/25 03:49:22;;;;;;;5.68;3.15;;;24.60;96.70;;;;;;4895946;29;20088;-72
2021/07/25 03:55:48;;;;;;;5.15;3.50;;;24.50;96.70;;;;;;4893051;29;20062;-72
2021/07/25 03:58:17;;;;;;;4.90;3.67;;;24.40;96.70;;;;;;4908563;29;20055;-72
2021/07/25 04:00:47;;;;;;;5.38;3.22;;;24.30;96.70;;;;;;4908795;29;20047;-72
2021/07/25 04:03:16;;;;;;;4.60;3.63;;;24.30;96.70;;;;;;4907181;29;20043;-72
2021/07/25 04:05:45;;;;;;;5.57;3.75;;;24.40;96.70;;;;;;4901143;29;20048;-73
2021/07/25 04:08:16;;;;;;;7.72;3.38;;;24.30;96.70;;;;;;4903842;29;20040;-72
2021/07/25 04:10:45;;;;;;;8.07;3.33;;;24.30;96.70;;;;;;4906614;29;20548;-72
2021/07/25 04:13:14;;;;;;;7.07;3.75;;;24.20;96.70;;;;;;4905032;29;20047;-72
2021/07/25 04:15:44;;;;;;;5.13;3.40;;;24.20;96.70;;;;;;4902057;29;20048;-72
2021/07/25 04:18:15;;;;;;;5.22;3.50;;;24.30;96.70;;;;;;4904467;29;20055;-72
2021/07/25 04:20:43;;;;;;;5.78;3.70;;;24.30;96.70;;;;;;4900019;29;20947;-73
2021/07/25 04:23:12;;;;;;;5.05;3.92;;;24.20;96.70;;;;;;4915919;28;20063;-72
2021/07/25 04:25:42;;;;;;;3.58;3.28;;;24.30;96.70;;;;;;4896471;29;20155;-72
2021/07/25 04:28:11;;;;;;;6.38;3.75;;;24.20;96.70;;;;;;4901724;29;20056;-72
2021/07/25 04:39:07;;;;;;;4.65;4.10;;;24.20;96.70;;;;;;4913006;29;20048;-72
2021/07/25 05:02:39;;;;;;;7.47;5.75;;;24.40;96.70;;;;;;4914076;29;20047;-72
2021/07/25 05:05:08;;;;;;;8.73;4.78;;;24.50;96.70;;;;;;4917069;29;20495;-72
2021/07/25 05:07:40;;;;;;;8.07;4.25;;;24.60;96.70;;;;;;4913584;29;20048;-72
2021/07/25 05:10:10;;;;;;;6.72;4.35;;;24.60;96.70;;;;;;4895941;29;20040;-72
2021/07/25 05:12:43;;;;;;;8.15;4.22;;;24.50;96.70;;;;;;4901032;29;20044;-72
2021/07/25 05:15:15;;;;;;;5.45;3.70;;;24.50;96.70;;;;;;4916249;29;20044;-71
2021/07/25 05:17:51;;;;;;;6.72;4.18;;;24.50;96.70;;;;;;4901571;29;20131;-72
2021/07/25 05:20:25;;;;;;;5.60;4.13;;;24.60;96.70;;;;;;4910473;29;20058;-72
2021/07/25 05:23:01;;;;;;;5.63;3.72;;;24.50;96.70;;;;;;4913976;29;20586;-72
2021/07/25 05:25:31;;;;;;;6.82;4.32;;;24.40;96.70;;;;;;4903423;29;20044;-71
2021/07/25 05:28:05;;;;;;;7.45;3.55;;;24.60;96.70;;;;;;4898134;29;20058;-72
2021/07/25 05:30:39;;;;;;;10.52;4.10;;;24.80;96.70;;;;;;4916642;29;20079;-73
2021/07/25 05:33:08;;;;;;;5.05;3.60;;;24.80;96.70;;;;;;4895758;29;20566;-72
2021/07/25 05:35:37;;;;;;;6.10;3.63;;;24.80;96.70;;;;;;4900740;29;20118;-72
2021/07/25 05:38:05;;;;;;;9.15;3.80;;;24.80;96.70;;;;;;4884255;29;20052;-71
2021/07/25 05:40:33;;;;;;;5.80;4.13;;;24.80;96.70;;;;;;4898055;29;20111;-72
2021/07/25 05:43:01;;;;;;;4.82;3.40;;;24.80;96.70;;;;;;4900961;29;20513;-71
2021/07/25 05:45:30;;;;;;;4.10;3.50;;;24.90;96.70;;;;;;4902836;29;20068;-72
2021/07/25 05:47:58;;;;;;;6.30;4.18;;;24.80;96.70;;;;;;4900096;29;20144;-69
2021/07/25 05:50:28;;;;;;;4.93;3.50;;;24.80;96.70;;;;;;4902468;29;20047;-70
2021/07/25 05:52:57;;;;;;;4.18;3.75;;;24.90;96.70;;;;;;4914323;29;20052;-71
2021/07/25 05:55:27;;;;;;;4.13;3.55;;;25.00;96.70;;;;;;4901046;29;20040;-72
2021/07/25 05:57:55;;;;;;;6.70;3.70;;;25.10;96.70;;;;;;4902861;29;20052;-71
2021/07/25 06:00:24;;;;;;;5.32;3.90;;;25.00;96.70;;;;;;4899417;29;21039;-72
2021/07/25 06:02:53;;;;;;;5.80;3.92;;;25.00;96.70;;;;;;4903303;29;20040;-72
2021/07/25 06:05:22;;;;;;;6.40;3.60;;;25.10;96.70;;;;;;4901650;29;20044;-71
2021/07/25 06:07:52;;;;;;;5.10;3.58;;;25.10;96.70;;;;;;4910006;29;20119;-72
2021/07/25 06:10:22;;;;;;;7.05;3.80;;;25.20;96.70;;;;;;4897444;29;20502;-73
2021/07/25 06:12:51;;;;;;;6.63;3.95;;;25.20;96.70;;;;;;4915008;29;20587;-72
2021/07/25 06:15:21;;;;;;;6.57;4.40;;;25.30;96.70;;;;;;4901171;29;20131;-73
2021/07/25 06:17:49;;;;;;;5.72;3.65;;;25.30;96.70;;;;;;4901879;29;20309;-72
2021/07/25 06:20:17;;;;;;;4.75;3.78;;;25.40;96.70;;;;;;4905686;29;20434;-72
2021/07/25 06:22:46;;;;;;;4.82;3.90;;;25.50;96.70;;;;;;4911518;29;20128;-72
2021/07/25 06:25:20;;;;;;;7.00;4.47;;;25.50;96.70;;;;;;4903992;29;20146;-73
2021/07/25 06:27:51;;;;;;;12.98;5.65;;;25.60;96.70;;;;;;4914014;29;20055;-73
2021/07/25 06:30:20;;;;;;;10.52;6.20;;;25.70;96.70;;;;;;4886980;29;20056;-72
2021/07/25 06:32:55;;;;;;;8.13;6.07;;;25.80;96.70;;;;;;4901976;29;20574;-73
2021/07/25 06:35:25;;;;;;;9.90;6.28;;;25.90;96.70;;;;;;4903352;29;20046;-72
2021/07/25 06:37:53;;;;;;;15.23;5.22;;;25.90;96.70;;;;;;4916598;29;20108;-72
2021/07/25 06:40:24;;;;;;;8.68;5.72;;;25.80;96.70;;;;;;4901031;29;20044;-72
2021/07/25 06:42:52;;;;;;;7.57;5.45;;;25.90;96.70;;;;;;4903727;29;20074;-73
2021/07/25 06:45:20;;;;;;;6.93;4.93;;;25.80;96.70;;;;;;4904032;29;20579;-72
2021/07/25 06:47:50;;;;;;;5.97;4.57;;;25.90;96.70;;;;;;4904757;29;20048;-73
2021/07/25 06:50:19;;;;;;;7.47;5.25;;;26.00;96.70;;;;;;4906315;29;20048;-73
2021/07/25 06:52:47;;;;;;;6.57;4.38;;;26.00;96.70;;;;;;4907459;29;20044;-73
2021/07/25 06:55:17;;;;;;;8.65;4.82;;;26.10;96.70;;;;;;4903558;29;20113;-73
2021/07/25 06:57:47;;;;;;;8.23;4.63;;;26.20;96.70;;;;;;4903281;29;20123;-73
2021/07/25 07:00:16;;;;;;;6.20;4.43;;;26.20;96.70;;;;;;4904920;29;20107;-73
2021/07/25 07:02:51;;;;;;;8.95;5.70;;;26.30;96.70;;;;;;4917628;28;20428;-73
2021/07/25 07:05:21;;;;;;;7.57;4.50;;;26.40;96.70;;;;;;4903838;29;20123;-72
2021/07/25 07:07:51;;;;;;;7.05;5.13;;;26.40;96.70;;;;;;4903470;29;20078;-73
2021/07/25 07:10:22;;;;;;;6.03;5.00;;;26.50;96.70;;;;;;4903932;29;20298;-72
2021/07/25 07:12:53;;;;;;;7.78;5.50;;;26.60;96.70;;;;;;4905720;29;20046;-72
2021/07/25 07:15:23;;;;;;;7.47;5.00;;;26.70;96.70;;;;;;4903634;29;20059;-72
2021/07/25 07:17:52;;;;;;;7.40;5.00;;;26.70;96.70;;;;;;4902389;29;20033;-72
2021/07/25 07:20:21;;;;;;;5.22;4.45;;;26.80;96.70;;;;;;4907891;29;20477;-73
2021/07/25 07:22:53;;;;;;;5.88;4.72;;;26.90;96.70;;;;;;4909029;29;20043;-72
2021/07/25 07:25:22;;;;;;;5.20;3.83;;;27.00;96.70;;;;;;4903612;29;20044;-72
2021/07/25 07:27:52;;;;;;;6.32;4.28;;;27.10;95.90;;;;;;4904936;29;20664;-73
2021/07/25 07:30:20;;;;;;;4.40;3.78;;;27.10;95.90;;;;;;4919141;29;20048;-73
2021/07/25 07:32:49;;;;;;;6.68;3.83;;;27.20;95.30;;;;;;4900289;29;20048;-73
2021/07/25 07:35:22;;;;;;;4.82;3.42;;;27.30;95.20;;;;;;4905704;29;20051;-73
2021/07/25 07:37:51;;;;;;;4.97;3.80;;;27.40;95.20;;;;;;4906199;28;20398;-73
2021/07/25 07:40:19;;;;;;;4.80;4.00;;;27.40;94.90;;;;;;4910756;29;20047;-72
2021/07/25 07:42:48;;;;;;;5.55;3.95;;;27.50;94.40;;;;;;4908214;29;20157;-73
2021/07/25 07:45:18;;;;;;;6.53;3.58;;;27.60;94.00;;;;;;4923997;29;20055;-73
2021/07/25 07:47:47;;;;;;;4.85;3.60;;;27.70;93.70;;;;;;4889355;29;20052;-78
2021/07/25 07:50:17;;;;;;;7.55;3.90;;;27.80;93.50;;;;;;4910449;29;20048;-73
2021/07/25 07:52:45;;;;;;;6.80;3.50;;;27.90;92.80;;;;;;4908149;29;20048;-73
2021/07/25 07:55:14;;;;;;;7.07;3.75;;;28.10;92.30;;;;;;4908510;29;20048;-73
2021/07/25 07:57:42;;;;;;;5.40;3.63;;;28.10;91.70;;;;;;4908558;29;20052;-74
2021/07/25 08:00:11;;;;;;;5.85;3.72;;;28.20;91.90;;;;;;4922657;29;20067;-72
2021/07/25 08:02:41;;;;;;;5.97;3.50;;;28.30;91.70;;;;;;4906223;29;20079;-72
2021/07/25 08:05:11;;;;;;;4.55;4.00;;;28.40;91.50;;;;;;4908332;29;20040;-72
2021/07/25 08:07:41;;;;;;;5.03;3.88;;;28.60;91.40;;;;;;4919985;28;20052;-72
2021/07/25 08:10:10;;;;;;;4.50;3.50;;;28.70;90.60;;;;;;4908184;29;22073;-71
2021/07/25 08:12:41;;;;;;;4.25;3.13;;;28.80;89.50;;;;;;4909552;29;20044;-71
2021/07/25 08:15:10;;;;;;;5.00;3.20;;;28.90;89.70;;;;;;4916856;29;20410;-72
2021/07/25 08:17:40;;;;;;;5.55;3.33;;;28.90;88.80;;;;;;4922643;29;20052;-72
2021/07/25 08:20:09;;;;;;;5.95;3.40;;;28.90;88.40;;;;;;4922147;29;20128;-72
2021/07/25 08:22:41;;;;;;;5.30;3.00;;;28.90;88.20;;;;;;4916483;28;20139;-74
2021/07/25 08:25:10;;;;;;;5.20;3.30;;;28.90;88.50;;;;;;4919385;28;20499;-75
2021/07/25 08:27:38;;;;;;;4.68;3.58;;;28.80;88.50;;;;;;4922781;29;20048;-73
2021/07/25 08:30:08;;;;;;;5.07;3.30;;;28.80;88.20;;;;;;4908416;29;20048;-74
2021/07/25 08:32:36;;;;;;;5.07;3.25;;;28.80;87.10;;;;;;4937437;28;20134;-73
2021/07/25 08:35:07;;;;;;;6.90;3.40;;;28.80;88.10;;;;;;4921143;29;20107;-72
2021/07/25 08:37:35;;;;;;;3.78;3.22;;;28.90;86.40;;;;;;4923580;28;20058;-71
2021/07/25 08:40:07;;;;;;;4.78;2.80;;;28.90;86.30;;;;;;4905937;29;20048;-72
2021/07/25 08:42:43;;;;;;;5.47;3.25;;;28.80;86.20;;;;;;4904108;29;20071;-71
2021/07/25 08:45:13;;;;;;;3.97;2.72;;;28.80;86.80;;;;;;4936428;28;20052;-71
2021/07/25 08:47:42;;;;;;;3.80;3.38;;;28.80;88.10;;;;;;4908518;29;20146;-72
2021/07/25 08:50:14;;;;;;;5.47;3.45;;;28.80;93.30;;;;;;4901731;29;20431;-71
2021/07/25 08:52:44;;;;;;;6.60;3.22;;;28.80;93.30;;;;;;4897153;29;20041;-71
2021/07/25 08:55:15;;;;;;;6.18;3.38;;;28.90;93.00;;;;;;4895566;29;20191;-71
2021/07/25 08:57:45;;;;;;;4.00;3.08;;;28.90;94.90;;;;;;4906118;29;20076;-71
2021/07/25 09:00:15;;;;;;;3.67;3.38;;;28.80;92.80;;;;;;4934369;28;20365;-71
2021/07/25 09:02:44;;;;;;;4.63;2.97;;;28.80;93.80;;;;;;4907627;29;20279;-71
2021/07/25 09:05:15;;;;;;;5.60;3.20;;;28.70;92.90;;;;;;4918703;29;20051;-71
2021/07/25 09:07:48;;;;;;;4.03;3.63;;;28.70;92.20;;;;;;4905272;29;20052;-71
2021/07/25 09:10:18;;;;;;;5.88;3.22;;;28.60;92.50;;;;;;4920230;29;20521;-71
2021/07/25 09:12:49;;;;;;;8.98;3.00;;;28.60;93.40;;;;;;4898758;29;20048;-71
2021/07/25 09:15:20;;;;;;;4.00;3.22;;;28.50;92.60;;;;;;4903816;29;20062;-70
2021/07/25 09:17:48;;;;;;;5.07;3.47;;;28.40;91.80;;;;;;4905040;29;20103;-75
2021/07/25 09:20:29;;;;;;;9.35;4.72;;;28.40;92.00;;;;;;4905595;29;20052;-72
2021/07/25 09:23:16;;;;;;;15.60;4.35;;;28.30;94.60;;;;;;4905669;29;20107;-73
2021/07/25 09:25:47;;;;;;;16.98;7.43;;;28.20;96.70;;;;;;4916639;29;20108;-74
2021/07/25 09:28:28;;;;;;;18.27;9.63;;;28.20;96.70;;;;;;4901615;29;20044;-74
2021/07/25 09:31:13;;;;;;;13.68;8.70;;;28.00;96.70;;;;;;4891956;29;20151;-74
2021/07/25 09:33:45;;;;;;;8.90;5.05;;;27.80;96.70;;;;;;4904864;29;20259;-74
2021/07/25 09:36:18;;;;;;;10.95;4.60;;;27.70;96.70;;;;;;4907481;29;20044;-74
2021/07/25 09:38:48;;;;;;;8.75;4.20;;;27.50;96.70;;;;;;4918192;29;20049;-75
2021/07/25 09:41:21;;;;;;;12.60;5.25;;;27.20;96.70;;;;;;4907881;29;20048;-73
2021/07/25 09:44:05;;;;;;;9.77;5.07;;;27.10;96.70;;;;;;4918795;29;20044;-73
2021/07/25 09:46:44;;;;;;;12.65;5.28;;;26.90;96.70;;;;;;4901958;29;20064;-74
2021/07/25 09:49:13;;;;;;;11.50;5.78;;;26.80;96.70;;;;;;4897637;29;20128;-72
2021/07/25 09:51:42;;;;;;;12.98;5.72;;;26.80;96.70;;;;;;4903089;29;20103;-73
2021/07/25 09:54:10;;;;;;;11.70;4.72;;;26.60;96.70;;;;;;4906784;29;20036;-72
2021/07/25 09:56:39;;;;;;;12.52;5.22;;;26.40;96.70;;;;;;4901105;29;20037;-74
2021/07/25 09:59:22;;;;;;;10.70;5.00;;;26.40;96.70;;;;;;4912966;29;20099;-72
2021/07/25 10:01:50;;;;;;;9.07;5.50;;;26.50;96.70;;;;;;4915886;29;20051;-72
2021/07/25 10:04:21;;;;;;;10.70;5.05;;;26.40;96.70;;;;;;4905090;29;20052;-73
2021/07/25 10:06:51;;;;;;;11.45;5.15;;;26.40;96.70;;;;;;4902804;29;20036;-73
2021/07/25 10:09:21;;;;;;;11.63;4.90;;;26.30;96.70;;;;;;4905480;29;20376;-73
2021/07/25 10:11:53;;;;;;;12.80;5.18;;;26.30;96.70;;;;;;4906983;29;20804;-73
2021/07/25 10:14:22;;;;;;;10.30;5.15;;;26.40;96.70;;;;;;4907029;29;20051;-73
2021/07/25 10:16:56;;;;;;;9.77;4.70;;;26.40;96.70;;;;;;4917705;28;20107;-76
2021/07/25 10:19:28;;;;;;;11.55;5.50;;;26.30;96.70;;;;;;4905677;29;20483;-74
2021/07/25 10:21:58;;;;;;;7.25;4.68;;;26.30;96.70;;;;;;4904547;29;20044;-74
2021/07/25 10:24:27;;;;;;;7.20;4.50;;;26.30;96.70;;;;;;4906297;29;20048;-74
2021/07/25 10:26:57;;;;;;;6.60;4.32;;;26.40;96.70;;;;;;4904501;29;20530;-74
2021/07/25 10:29:28;;;;;;;6.97;4.82;;;26.40;96.70;;;;;;4905860;29;20099;-74
2021/07/25 10:31:56;;;;;;;7.00;4.72;;;26.50;96.70;;;;;;4904807;29;20032;-75
2021/07/25 10:34:26;;;;;;;9.00;4.68;;;26.50;96.70;;;;;;4905386;29;20123;-73
2021/07/25 10:36:55;;;;;;;5.15;4.35;;;26.70;96.70;;;;;;4886660;29;20052;-73
2021/07/25 10:39:28;;;;;;;7.65;4.65;;;27.00;96.70;;;;;;4918246;28;20067;-73
2021/07/25 10:41:59;;;;;;;6.22;4.60;;;27.20;96.70;;;;;;4905267;29;20044;-73
2021/07/25 10:44:28;;;;;;;7.78;4.65;;;27.30;96.70;;;;;;4906824;29;20048;-73
2021/07/25 10:47:24;;;;;;;5.18;4.15;;;27.30;96.70;;;;;;4917406;29;20067;-73
2021/07/25 10:49:57;;;;;;;7.03;4.00;;;27.30;96.70;;;;;;4895685;29;20052;-72
2021/07/25 10:52:26;;;;;;;7.05;4.47;;;27.40;96.70;;;;;;4905662;29;20051;-73
2021/07/25 10:54:56;;;;;;;6.05;4.63;;;27.40;96.70;;;;;;4903613;29;20103;-73
2021/07/25 10:57:24;;;;;;;5.00;4.15;;;27.40;96.70;;;;;;4905443;29;20060;-72
2021/07/25 10:59:57;;;;;;;6.35;4.35;;;27.50;96.70;;;;;;4904056;29;20044;-72
2021/07/25 11:02:53;;;;;;;9.55;4.97;;;27.50;96.70;;;;;;4905179;29;20070;-73
2021/07/25 11:05:24;;;;;;;7.93;4.95;;;27.60;96.70;;;;;;4909162;29;20051;-72
2021/07/25 11:07:57;;;;;;;6.00;4.60;;;27.70;96.70;;;;;;4909460;29;20058;-72
2021/07/25 11:10:34;;;;;;;6.18;4.45;;;28.00;96.70;;;;;;4908987;29;20051;-72
2021/07/25 11:13:12;;;;;;;4.53;3.92;;;28.30;96.70;;;;;;4906280;29;20455;-72
2021/07/25 11:15:40;;;;;;;8.55;4.72;;;28.50;96.70;;;;;;4928643;29;20130;-73
2021/07/25 11:18:11;;;;;;;8.07;4.53;;;28.50;96.70;;;;;;4908753;29;20044;-73
2021/07/25 11:20:56;;;;;;;5.68;4.40;;;28.40;96.70;;;;;;4909428;29;20529;-73
2021/07/25 11:23:35;;;;;;;6.53;4.50;;;28.30;96.70;;;;;;4904347;29;20096;-72
2021/07/25 11:26:31;;;;;;;6.82;4.10;;;28.20;96.70;;;;;;4924056;29;20138;-72
2021/07/25 11:29:09;;;;;;;4.85;4.38;;;28.20;96.70;;;;;;4905900;29;20056;-72
2021/07/25 11:31:40;;;;;;;7.43;4.25;;;28.20;96.70;;;;;;4912747;29;20044;-72
2021/07/25 11:34:10;;;;;;;10.30;4.47;;;28.50;96.70;;;;;;4906687;29;20388;-72
2021/07/25 11:36:38;;;;;;;6.45;4.30;;;28.80;96.70;;;;;;4908903;29;20498;-72
2021/07/25 11:39:08;;;;;;;5.38;4.40;;;29.10;96.70;;;;;;4900381;29;20499;-72
2021/07/25 11:41:39;;;;;;;6.50;4.22;;;29.20;96.70;;;;;;4907633;29;20135;-72
2021/07/25 11:44:09;;;;;;;5.45;4.45;;;29.30;96.70;;;;;;4936793;28;20048;-73
2021/07/25 11:46:39;;;;;;;6.75;4.13;;;29.50;96.70;;;;;;4907439;29;20510;-73
2021/07/25 11:49:13;;;;;;;8.43;4.78;;;29.70;96.70;;;;;;4907039;29;20068;-73
2021/07/25 11:51:52;;;;;;;6.53;4.03;;;29.90;96.70;;;;;;4908963;29;20091;-73
2021/07/25 11:54:22;;;;;;;6.32;4.07;;;30.10;96.20;;;;;;4920803;29;20586;-73
2021/07/25 11:57:08;;;;;;;4.57;3.28;;;30.40;94.90;;;;;;4902927;29;20524;-72
2021/07/25 11:59:38;;;;;;;5.28;3.92;;;30.50;92.50;;;;;;4908922;29;20619;-73
2021/07/25 12:02:07;;;;;;;6.80;4.28;;;30.40;92.50;;;;;;4905399;29;20123;-73
2021/07/25 12:04:40;;;;;;;5.55;4.05;;;30.40;92.30;;;;;;4909250;29;20510;-73
2021/07/25 12:07:15;;;;;;;3.95;3.55;;;30.40;92.90;;;;;;4907330;29;20055;-73
2021/07/25 12:09:45;;;;;;;4.32;3.70;;;30.60;92.80;;;;;;4918205;29;20156;-73
2021/07/25 12:12:16;;;;;;;8.23;3.80;;;30.90;91.60;;;;;;4905593;29;20079;-73
2021/07/25 12:14:47;;;;;;;6.38;3.58;;;30.90;91.40;;;;;;4891559;29;20056;-72
2021/07/25 12:17:50;;;;;;;5.57;4.03;;;31.30;90.70;;;;;;4905760;29;20520;-73
2021/07/25 12:20:20;;;;;;;5.07;3.50;;;31.60;90.00;;;;;;4913274;29;20060;-73
2021/07/25 12:22:54;;;;;;;11.68;4.35;;;31.70;89.90;;;;;;4920797;29;20072;-73
2021/07/25 12:25:22;;;;;;;6.05;4.05;;;31.70;88.50;;;;;;4900553;29;20499;-73
2021/07/25 12:28:09;;;;;;;5.25;4.00;;;31.70;89.20;;;;;;4938366;28;20052;-73
2021/07/25 12:30:41;;;;;;;7.03;3.85;;;31.90;88.80;;;;;;4916520;29;20049;-73
2021/07/25 12:33:11;;;;;;;7.60;3.50;;;32.10;88.70;;;;;;4922554;29;20036;-73
2021/07/25 12:35:39;;;;;;;5.43;3.45;;;32.30;88.30;;;;;;4907337;29;20048;-73
2021/07/25 12:38:11;;;;;;;8.23;4.53;;;32.60;87.40;;;;;;4907136;29;20413;-73
2021/07/25 12:40:47;;;;;;;6.72;3.83;;;32.60;87.00;;;;;;4905290;29;20116;-73
2021/07/25 12:43:20;;;;;;;;;;;32.40;87.40;;;;;;4908826;29;20044;-73
2021/07/25 12:45:48;;;;;;;7.13;4.13;;;32.60;87.10;;;;;;4905856;29;20267;-73
2021/07/25 12:48:29;;;;;;;8.20;4.00;;;32.80;85.30;;;;;;4913587;29;20096;-73
2021/07/25 12:53:39;;;;;;;6.63;3.78;;;33.10;84.60;;;;;;4899578;29;20052;-73
2021/07/25 12:56:08;;;;;;;6.97;3.90;;;32.80;84.40;;;;;;4905475;29;20045;-73
2021/07/25 12:58:39;;;;;;;7.00;3.88;;;33.00;85.10;;;;;;4907211;29;20054;-73
2021/07/25 13:03:57;;;;;;;5.85;3.90;;;33.00;84.20;;;;;;4935244;28;20048;-73
2021/07/25 13:06:28;;;;;;;6.72;3.63;;;32.90;84.30;;;;;;4902715;29;20040;-73
2021/07/25 13:08:59;;;;;;;8.32;3.65;;;33.00;84.70;;;;;;4900407;29;20040;-73
2021/07/25 13:11:28;;;;;;;6.53;4.00;;;33.10;85.50;;;;;;4921379;29;20048;-73
2021/07/25 13:14:01;;;;;;;6.00;3.83;;;33.40;84.90;;;;;;4904568;29;20044;-73
2021/07/25 13:16:29;;;;;;;6.47;3.53;;;33.50;84.30;;;;;;4907319;29;20050;-73
2021/07/25 13:18:59;;;;;;;6.85;4.03;;;33.70;84.00;;;;;;4889864;29;20151;-73
2021/07/25 13:21:28;;;;;;;5.40;3.70;;;33.90;82.90;;;;;;4907870;29;20052;-73
2021/07/25 13:23:57;;;;;;;5.32;4.18;;;34.20;83.10;;;;;;4917172;28;20052;-73
2021/07/25 13:26:27;;;;;;;8.10;3.72;;;34.60;82.90;;;;;;4907155;29;20070;-73
2021/07/25 13:28:57;;;;;;;5.70;3.80;;;35.00;82.90;;;;;;4904738;29;20577;-73
2021/07/25 13:31:27;;;;;;;7.85;3.92;;;35.10;81.00;;;;;;4906008;29;20524;-73
2021/07/25 13:33:55;;;;;;;6.57;4.35;;;34.50;81.30;;;;;;4899940;29;20062;-73
2021/07/25 13:36:24;;;;;;;6.13;3.60;;;34.50;82.00;;;;;;4912117;29;20720;-73
2021/07/25 13:38:52;;;;;;;8.65;4.22;;;34.70;82.10;;;;;;4901726;29;20697;-72
2021/07/25 13:41:20;;;;;;;4.78;3.90;;;34.80;81.80;;;;;;4907248;29;20059;-73
2021/07/25 13:43:50;;;;;;;7.13;3.92;;;34.80;81.30;;;;;;4917131;28;20132;-73
2021/07/25 13:46:23;;;;;;;7.30;3.85;;;34.80;81.70;;;;;;4918485;28;20449;-73
2021/07/25 13:48:53;;;;;;;7.78;4.20;;;34.40;81.80;;;;;;4905966;29;20058;-72
2021/07/25 13:51:25;;;;;;;6.05;4.22;;;34.40;82.40;;;;;;4906638;29;20388;-73
2021/07/25 13:53:54;;;;;;;6.15;3.78;;;34.90;81.50;;;;;;4917407;29;20098;-72
2021/07/25 13:56:22;;;;;;;7.18;4.40;;;35.10;80.80;;;;;;4905583;29;20040;-73
2021/07/25 13:58:50;;;;;;;6.32;3.90;;;35.10;81.10;;;;;;4904313;29;20079;-73
2021/07/25 14:01:19;;;;;;;6.80;4.22;;;35.30;81.40;;;;;;4936957;28;20513;-73
2021/07/25 14:03:47;;;;;;;6.28;3.67;;;35.30;80.90;;;;;;4937067;28;20055;-73
2021/07/25 14:06:17;;;;;;;6.25;3.60;;;35.40;80.20;;;;;;4923940;28;20052;-73
2021/07/25 14:08:45;;;;;;;10.15;4.10;;;35.00;79.10;;;;;;4907479;29;20754;-73
2021/07/25 14:11:14;;;;;;;7.53;4.13;;;34.80;80.10;;;;;;4934612;28;20060;-73
2021/07/25 14:13:42;;;;;;;6.40;4.30;;;34.80;80.00;;;;;;4907110;29;20387;-73
2021/07/25 14:16:22;;;;;;;8.90;4.07;;;34.80;80.50;;;;;;4915089;28;20217;-73
2021/07/25 14:18:51;;;;;;;8.30;4.22;;;34.60;81.10;;;;;;4903271;29;20048;-74
2021/07/25 14:21:22;;;;;;;12.73;5.05;;;34.70;81.10;;;;;;4908305;29;20040;-73
2021/07/25 14:23:50;;;;;;;8.68;4.07;;;35.00;80.80;;;;;;4906816;29;20554;-73
2021/07/25 14:26:19;;;;;;;11.25;4.22;;;34.90;81.00;;;;;;4906427;29;20047;-73
2021/07/25 14:28:49;;;;;;;9.63;3.95;;;34.70;81.60;;;;;;4907254;29;20080;-73
2021/07/25 14:31:17;;;;;;;11.73;4.03;;;34.70;81.30;;;;;;4904387;29;20050;-73
2021/07/25 14:33:45;;;;;;;7.72;4.63;;;34.60;81.60;;;;;;4907582;29;20048;-72
2021/07/25 14:36:20;;;;;;;7.72;4.00;;;34.20;82.40;;;;;;4903567;29;20056;-71
2021/07/25 14:38:50;;;;;;;10.82;4.18;;;34.30;81.80;;;;;;4907364;29;20060;-71
2021/07/25 14:41:19;;;;;;;10.65;4.10;;;34.60;81.50;;;;;;4904586;29;20091;-72
2021/07/25 14:43:47;;;;;;;8.77;3.67;;;34.70;81.50;;;;;;4910121;29;20044;-72
2021/07/25 14:46:16;;;;;;;10.00;4.35;;;35.00;81.60;;;;;;4908613;29;20123;-72
2021/07/25 14:48:46;;;;;;;9.05;4.40;;;35.00;80.70;;;;;;4911159;29;20040;-72
2021/07/25 14:51:15;;;;;;;9.45;4.15;;;34.60;82.30;;;;;;4906658;29;20052;-72
2021/07/25 14:53:44;;;;;;;11.57;4.40;;;34.20;82.70;;;;;;4909290;29;20054;-72
2021/07/25 14:56:14;;;;;;;9.80;4.40;;;34.30;82.90;;;;;;4910159;29;20055;-72
2021/07/25 14:58:42;;;;;;;9.05;3.97;;;34.60;82.90;;;;;;4902187;29;20044;-71
2021/07/25 15:01:11;;;;;;;10.98;4.30;;;34.40;82.60;;;;;;4909469;29;20597;-72
2021/07/25 15:03:41;;;;;;;10.63;4.07;;;34.40;82.80;;;;;;4910371;29;20055;-71
2021/07/25 15:06:16;;;;;;;12.70;4.40;;;34.50;82.80;;;;;;4912686;29;20500;-73
2021/07/25 15:08:44;;;;;;;7.97;4.05;;;34.60;82.90;;;;;;4903916;29;20064;-72